Time;durP1;ratioP1;P1;durP2;ratioP2;P2;SDS_P1;SDS_P2;PMS_P1;PMS_P2;Temp;Humidity;BMP_temperature;BMP_pressure;BME280_temperature;BME280_humidity;BME280_pressure;Samples;Min_cycle;Max_cycle;Signal;HPM_P1;HPM_P2
2022/09/06 00:01:45;;;;;;;8.80;6.40;;;20.20;73.00;;;;;;4993044;28;20173;-64
2022/09/06 00:04:10;;;;;;;10.00;6.03;;;20.10;99.90;;;;;;4993112;28;20204;-64
2022/09/06 00:06:36;;;;;;;11.80;6.63;;;20.10;99.90;;;;;;4992886;28;20418;-64
2022/09/06 00:09:02;;;;;;;6.83;5.67;;;20.10;99.90;;;;;;4992446;28;20180;-64
2022/09/06 00:11:28;;;;;;;17.13;8.00;;;20.10;99.90;;;;;;4992861;28;20252;-63
2022/09/06 00:13:54;;;;;;;6.70;6.00;;;20.10;99.90;;;;;;5007709;28;20539;-66
2022/09/06 00:16:23;;;;;;;12.27;6.07;;;20.00;99.90;;;;;;4992723;28;20529;-66
2022/09/06 00:18:53;;;;;;;12.10;6.13;;;20.00;99.90;;;;;;4992511;28;20197;-63
2022/09/06 00:21:25;;;;;;;7.00;5.33;;;19.90;99.90;;;;;;4992674;28;20415;-65
2022/09/06 00:23:51;;;;;;;10.30;6.17;;;20.00;99.90;;;;;;4992664;28;20931;-64
2022/09/06 00:26:18;;;;;;;8.13;5.77;;;20.00;99.90;;;;;;4992568;28;20932;-65
2022/09/06 00:28:44;;;;;;;5.90;5.30;;;19.90;99.90;;;;;;4992327;28;20420;-62
2022/09/06 00:31:14;;;;;;;8.27;5.60;;;19.60;1.00;;;;;;4992442;28;20994;-64
2022/09/06 00:33:40;;;;;;;6.00;5.27;;;19.60;1.00;;;;;;4992223;28;20192;-63
2022/09/06 00:36:07;;;;;;;7.10;5.87;;;19.70;1.00;;;;;;4992290;28;20423;-62
2022/09/06 00:38:33;;;;;;;6.50;5.23;;;19.80;99.90;;;;;;4991968;28;20917;-63
2022/09/06 00:41:00;;;;;;;8.17;5.10;;;19.80;99.90;;;;;;4992195;28;20446;-65
2022/09/06 00:43:25;;;;;;;6.83;5.53;;;19.70;99.90;;;;;;4992207;28;20188;-63
2022/09/06 00:45:52;;;;;;;7.83;6.60;;;19.80;99.90;;;;;;4992037;28;20432;-63
2022/09/06 00:48:19;;;;;;;16.00;6.63;;;19.70;99.90;;;;;;4991780;28;20183;-63
2022/09/06 00:50:48;;;;;;;6.80;5.60;;;19.70;99.90;;;;;;4992129;28;20456;-65
2022/09/06 00:53:14;;;;;;;8.73;5.30;;;19.60;1.00;;;;;;4992114;28;20408;-64
2022/09/06 00:55:41;;;;;;;10.23;6.00;;;19.50;1.00;;;;;;4991862;28;20486;-64
2022/09/06 00:58:08;;;;;;;8.53;5.13;;;19.50;1.00;;;;;;4991828;28;20408;-64
2022/09/06 01:00:34;;;;;;;5.87;5.10;;;19.50;1.00;;;;;;4991823;28;20412;-64
2022/09/06 01:03:00;;;;;;;8.90;5.10;;;19.50;1.00;;;;;;4992063;28;20874;-64
2022/09/06 01:05:40;;;;;;;12.63;5.90;;;19.60;1.00;;;;;;4991702;28;20200;-65
2022/09/06 01:08:31;;;;;;;11.53;6.60;;;19.60;99.90;;;;;;4989712;28;20175;-66
2022/09/06 01:11:16;;;;;;;7.40;5.90;;;19.60;99.90;;;;;;4991920;28;21048;-63
2022/09/06 01:14:01;;;;;;;8.47;6.07;;;19.40;1.00;;;;;;4992191;28;20551;-63
2022/09/06 01:16:43;;;;;;;5.90;5.30;;;19.40;1.00;;;;;;4991973;28;20419;-63
2022/09/06 01:19:18;;;;;;;6.73;5.77;;;19.30;1.00;;;;;;4991910;28;20408;-65
2022/09/06 01:21:53;;;;;;;6.63;6.00;;;19.30;1.00;;;;;;4991570;28;20434;-61
2022/09/06 01:24:42;;;;;;;5.97;5.33;;;19.40;1.00;;;;;;4991830;28;20423;-62
2022/09/06 01:27:44;;;;;;;13.40;6.77;;;19.40;99.90;;;;;;4991587;28;20408;-61
2022/09/06 01:30:13;;;;;;;13.80;5.93;;;19.40;99.90;;;;;;4991654;28;20443;-62
2022/09/06 01:32:51;;;;;;;8.60;6.17;;;19.40;99.90;;;;;;4991487;28;20472;-63
2022/09/06 01:35:27;;;;;;;9.03;5.50;;;19.40;99.90;;;;;;4990334;28;20458;-62
2022/09/06 01:37:55;;;;;;;8.57;6.30;;;19.40;99.90;;;;;;4991298;28;20912;-62
2022/09/06 01:40:21;;;;;;;37.70;10.03;;;19.30;99.90;;;;;;4991113;28;20499;-62
2022/09/06 01:42:49;;;;;;;18.97;12.03;;;19.30;99.90;;;;;;4991270;28;20507;-63
2022/09/06 01:45:19;;;;;;;23.77;17.40;;;19.20;99.90;;;;;;4991117;28;20833;-62
2022/09/06 01:48:03;;;;;;;12.40;10.80;;;19.20;99.90;;;;;;4991046;28;20454;-65
2022/09/06 01:50:52;;;;;;;8.30;5.97;;;19.20;99.90;;;;;;4991041;28;20861;-65
2022/09/06 01:53:54;;;;;;;9.63;6.47;;;19.10;1.00;;;;;;4991242;28;20401;-65
2022/09/06 01:56:26;;;;;;;14.70;6.50;;;19.20;99.90;;;;;;4991084;28;20872;-62
2022/09/06 01:59:17;;;;;;;8.53;6.10;;;19.20;99.90;;;;;;4990822;28;20411;-64
2022/09/06 02:02:04;;;;;;;6.40;5.10;;;19.30;99.90;;;;;;4986350;28;20451;-62
2022/09/06 02:05:00;;;;;;;5.43;4.93;;;19.30;99.90;;;;;;4991097;28;20420;-65
2022/09/06 02:07:28;;;;;;;8.63;5.13;;;19.30;99.90;;;;;;4990941;28;20762;-65
2022/09/06 02:10:06;;;;;;;5.83;5.23;;;19.20;1.00;;;;;;4991016;28;20530;-64
2022/09/06 02:12:35;;;;;;;30.77;9.80;;;19.20;1.00;;;;;;4991123;28;20412;-64
2022/09/06 02:15:10;;;;;;;23.40;6.70;;;19.20;1.00;;;;;;4991012;28;20746;-64
2022/09/06 02:17:41;;;;;;;18.90;6.97;;;19.20;1.00;;;;;;4990870;28;20411;-65
2022/09/06 02:20:07;;;;;;;11.53;5.50;;;19.20;1.00;;;;;;4993716;28;20462;-65
2022/09/06 02:22:38;;;;;;;9.50;5.80;;;19.20;1.00;;;;;;4994782;28;20936;-65
2022/09/06 02:25:08;;;;;;;11.67;6.03;;;19.10;1.00;;;;;;4994847;28;20516;-63
2022/09/06 02:27:33;;;;;;;11.97;5.83;;;19.00;1.00;;;;;;4994537;28;20839;-65
2022/09/06 02:30:01;;;;;;;16.93;6.27;;;19.00;1.00;;;;;;4994516;28;20455;-64
2022/09/06 02:32:29;;;;;;;7.07;5.77;;;19.00;1.00;;;;;;5009567;28;20653;-64
2022/09/06 02:34:56;;;;;;;5.77;5.23;;;18.70;99.90;;;;;;4994901;28;20628;-63
2022/09/06 02:37:25;;;;;;;7.53;5.40;;;18.80;99.90;;;;;;4994202;28;20487;-62
2022/09/06 02:39:54;;;;;;;8.70;6.00;;;18.80;99.90;;;;;;4992901;28;20483;-64
2022/09/06 02:42:21;;;;;;;6.43;5.00;;;18.90;49.70;;;;;;4994341;28;20474;-62
2022/09/06 02:44:48;;;;;;;6.90;5.47;;;19.00;1.00;;;;;;4994225;28;20439;-64
2022/09/06 02:47:14;;;;;;;6.93;6.23;;;19.10;1.00;;;;;;4994083;28;20645;-63
2022/09/06 02:49:39;;;;;;;5.77;5.20;;;18.90;1.00;;;;;;4994147;28;20501;-64
2022/09/06 02:52:05;;;;;;;15.23;6.90;;;19.00;1.00;;;;;;4994242;28;20507;-63
2022/09/06 02:54:31;;;;;;;16.50;6.10;;;18.90;1.00;;;;;;4994180;28;20189;-65
2022/09/06 02:56:57;;;;;;;8.90;5.40;;;19.00;1.00;;;;;;4994003;28;20282;-66
2022/09/06 02:59:22;;;;;;;9.57;6.03;;;19.00;1.00;;;;;;4993991;28;20554;-66
2022/09/06 03:01:48;;;;;;;9.00;6.10;;;19.00;1.00;;;;;;4994073;28;20220;-64
2022/09/06 03:04:14;;;;;;;11.00;6.03;;;19.00;1.00;;;;;;4994051;28;20713;-62
2022/09/06 03:06:40;;;;;;;9.90;5.83;;;19.00;1.00;;;;;;4993892;28;20180;-64
2022/09/06 03:09:05;;;;;;;6.87;5.70;;;18.90;1.00;;;;;;5008642;28;20180;-64
2022/09/06 03:11:31;;;;;;;7.73;5.73;;;18.90;1.00;;;;;;4993793;28;20223;-66
2022/09/06 03:13:57;;;;;;;9.80;5.80;;;18.80;1.00;;;;;;4993942;28;20193;-64
2022/09/06 03:16:23;;;;;;;9.30;5.53;;;18.70;1.00;;;;;;4993895;28;20638;-65
2022/09/06 03:18:48;;;;;;;6.37;5.77;;;18.80;1.00;;;;;;4993534;28;20185;-63
2022/09/06 03:21:14;;;;;;;9.47;6.50;;;18.80;1.00;;;;;;4993616;28;20177;-64
2022/09/06 03:23:40;;;;;;;6.90;5.27;;;18.70;1.00;;;;;;4993597;28;20169;-63
2022/09/06 03:26:06;;;;;;;7.93;5.73;;;18.60;1.00;;;;;;4993728;28;20710;-64
2022/09/06 03:28:33;;;;;;;7.23;5.50;;;18.50;54.30;;;;;;4993496;28;20196;-63
2022/09/06 03:30:58;;;;;;;10.63;6.47;;;18.50;99.90;;;;;;4992805;28;20452;-64
2022/09/06 03:33:25;;;;;;;12.30;5.57;;;18.60;1.00;;;;;;4993494;28;20824;-64
2022/09/06 03:35:53;;;;;;;9.30;7.23;;;18.60;1.00;;;;;;5008277;28;20263;-61
2022/09/06 03:38:19;;;;;;;8.97;6.83;;;18.70;1.00;;;;;;4993223;28;20416;-63
2022/09/06 03:40:46;;;;;;;9.70;7.90;;;18.70;99.90;;;;;;4993362;28;20900;-64
2022/09/06 03:43:12;;;;;;;8.23;6.10;;;18.70;99.90;;;;;;4993212;28;20424;-64
2022/09/06 03:45:38;;;;;;;5.50;5.00;;;18.40;1.00;;;;;;4991863;28;20432;-65
2022/09/06 03:48:04;;;;;;;8.77;5.50;;;18.10;1.00;;;;;;4993102;28;20447;-61
2022/09/06 03:50:29;;;;;;;20.03;6.80;;;18.10;1.00;;;;;;4993024;28;20204;-59
2022/09/06 03:52:55;;;;;;;7.50;5.30;;;18.30;99.90;;;;;;4993265;28;20275;-57
2022/09/06 03:55:21;;;;;;;6.63;5.00;;;18.40;74.00;;;;;;4993026;28;20334;-60
2022/09/06 03:57:46;;;;;;;8.43;6.07;;;18.50;1.00;;;;;;4992709;28;20205;-61
2022/09/06 04:00:13;;;;;;;8.20;5.70;;;18.50;1.00;;;;;;4992932;28;20192;-60
2022/09/06 04:02:39;;;;;;;15.37;6.13;;;18.50;1.00;;;;;;4993000;28;20181;-62
2022/09/06 04:05:05;;;;;;;11.67;6.93;;;18.60;1.00;;;;;;4992911;28;20434;-63
2022/09/06 04:07:30;;;;;;;9.13;5.93;;;18.50;94.50;;;;;;5007709;28;20668;-63
2022/09/06 04:09:56;;;;;;;9.63;6.00;;;18.50;1.00;;;;;;5007666;28;20456;-56
2022/09/06 04:12:22;;;;;;;8.50;5.40;;;18.30;40.30;;;;;;4992643;28;20176;-60
2022/09/06 04:14:48;;;;;;;8.93;6.07;;;18.30;1.00;;;;;;4992777;28;20605;-59
2022/09/06 04:17:13;;;;;;;10.57;6.37;;;18.20;99.90;;;;;;4992479;28;20276;-63
2022/09/06 04:19:39;;;;;;;11.37;7.27;;;18.10;99.90;;;;;;4992446;28;20180;-62
2022/09/06 04:22:05;;;;;;;11.03;6.00;;;18.00;99.90;;;;;;4992893;28;20176;-64
2022/09/06 04:24:30;;;;;;;10.30;6.87;;;18.00;99.90;;;;;;5007552;28;20197;-63
2022/09/06 04:26:56;;;;;;;14.10;6.70;;;17.90;1.00;;;;;;4992491;28;20181;-64
2022/09/06 04:29:22;;;;;;;14.83;6.97;;;17.90;99.90;;;;;;4992164;28;20176;-63
2022/09/06 04:31:48;;;;;;;23.87;8.30;;;17.90;1.00;;;;;;4992389;28;20173;-62
2022/09/06 04:34:15;;;;;;;18.43;7.50;;;18.00;1.00;;;;;;4992098;28;20436;-63
2022/09/06 04:36:40;;;;;;;18.80;8.37;;;18.10;99.90;;;;;;5007385;28;20224;-61
2022/09/06 04:39:06;;;;;;;11.13;7.00;;;17.90;99.90;;;;;;4974728;28;20412;-58
2022/09/06 04:41:32;;;;;;;9.43;7.47;;;17.90;91.60;;;;;;4992515;28;20168;-65
2022/09/06 04:43:57;;;;;;;11.50;7.40;;;17.50;99.90;;;;;;4991526;28;20200;-63
2022/09/06 04:46:26;;;;;;;19.63;8.70;;;17.30;1.00;;;;;;4992186;28;20227;-63
2022/09/06 04:48:53;;;;;;;15.90;8.00;;;17.40;1.00;;;;;;4994252;28;20169;-63
2022/09/06 04:51:20;;;;;;;10.47;7.77;;;17.50;1.00;;;;;;5007440;28;20561;-59
2022/09/06 04:53:46;;;;;;;14.63;7.90;;;17.50;1.00;;;;;;4992230;28;20424;-60
2022/09/06 04:56:17;;;;;;;19.50;9.03;;;17.50;1.00;;;;;;4992344;28;20796;-63
2022/09/06 04:58:44;;;;;;;48.87;12.80;;;17.50;1.00;;;;;;4992071;28;20413;-63
2022/09/06 05:01:10;;;;;;;10.87;8.33;;;17.50;1.00;;;;;;5008807;28;20720;-64
2022/09/06 05:03:36;;;;;;;10.50;8.10;;;17.50;1.00;;;;;;4994431;28;20486;-63
2022/09/06 05:06:06;;;;;;;9.30;8.30;;;17.60;1.00;;;;;;4995249;28;20173;-63
2022/09/06 05:08:32;;;;;;;14.60;8.60;;;17.80;1.00;;;;;;4991830;28;20180;-63
2022/09/06 05:10:58;;;;;;;10.57;8.40;;;17.80;1.00;;;;;;4992501;28;20833;-61
2022/09/06 05:13:23;;;;;;;8.93;8.13;;;17.70;1.00;;;;;;4992232;28;20239;-60
2022/09/06 05:15:50;;;;;;;9.20;7.87;;;17.80;1.00;;;;;;4990923;28;20673;-65
2022/09/06 05:18:15;;;;;;;29.10;9.60;;;17.90;1.00;;;;;;4991290;28;20165;-64
2022/09/06 05:20:41;;;;;;;16.60;9.27;;;18.10;1.00;;;;;;4991354;28;20418;-65
2022/09/06 05:23:07;;;;;;;24.20;8.70;;;18.10;1.00;;;;;;4991607;28;20203;-64
2022/09/06 05:25:33;;;;;;;23.80;9.70;;;18.20;99.90;;;;;;4991177;28;20220;-65
2022/09/06 05:27:59;;;;;;;34.17;10.53;;;18.10;99.90;;;;;;4991351;28;20435;-64
2022/09/06 05:30:24;;;;;;;31.00;11.30;;;18.10;1.00;;;;;;4991253;28;20293;-65
2022/09/06 05:32:50;;;;;;;12.83;7.73;;;18.10;1.00;;;;;;4991061;28;20201;-63
2022/09/06 05:35:16;;;;;;;11.03;8.50;;;18.20;1.00;;;;;;4990959;28;20211;-60
2022/09/06 05:37:41;;;;;;;24.50;10.93;;;18.30;1.00;;;;;;4991023;28;20176;-62
2022/09/06 05:40:08;;;;;;;18.73;9.27;;;18.20;1.00;;;;;;4991087;28;20173;-62
2022/09/06 05:42:34;;;;;;;20.80;10.20;;;18.30;1.00;;;;;;4991016;28;20173;-62
2022/09/06 05:45:00;;;;;;;32.53;9.37;;;18.40;1.00;;;;;;4991371;28;20845;-64
2022/09/06 05:47:26;;;;;;;25.43;10.43;;;18.60;90.40;;;;;;4991054;28;20176;-62
2022/09/06 05:49:53;;;;;;;30.70;10.63;;;18.60;1.00;;;;;;4991057;28;20794;-62
2022/09/06 05:52:18;;;;;;;13.67;9.30;;;18.50;1.00;;;;;;4991997;28;20651;-61
2022/09/06 05:54:44;;;;;;;16.50;9.67;;;18.40;99.90;;;;;;4995239;28;20514;-65
2022/09/06 05:57:10;;;;;;;40.47;11.77;;;18.50;99.90;;;;;;4997280;28;20570;-65
2022/09/06 05:59:36;;;;;;;57.47;16.03;;;18.60;99.90;;;;;;4997844;28;20172;-63
2022/09/06 06:02:01;;;;;;;45.77;13.13;;;18.80;1.00;;;;;;4997806;28;20710;-63
2022/09/06 06:04:27;;;;;;;49.43;15.20;;;18.90;1.00;;;;;;4980161;28;20199;-64
2022/09/06 06:06:53;;;;;;;23.63;10.93;;;19.20;99.90;;;;;;4997596;28;20168;-64
2022/09/06 06:09:18;;;;;;;41.90;11.53;;;19.50;99.90;;;;;;4997447;28;20169;-65
2022/09/06 06:11:44;;;;;;;37.60;12.90;;;19.60;1.00;;;;;;4997768;28;20547;-64
2022/09/06 06:14:10;;;;;;;23.23;10.80;;;19.60;1.00;;;;;;4997754;28;20196;-65
2022/09/06 06:16:35;;;;;;;16.70;10.70;;;19.60;1.00;;;;;;4997796;28;20192;-64
2022/09/06 06:19:01;;;;;;;26.60;10.93;;;19.60;1.00;;;;;;4997159;28;20256;-63
2022/09/06 06:21:29;;;;;;;25.37;10.77;;;19.80;1.00;;;;;;5012526;28;20515;-63
2022/09/06 06:24:00;;;;;;;17.57;9.30;;;20.20;1.00;;;;;;4997426;28;20618;-64
2022/09/06 06:26:27;;;;;;;26.13;10.57;;;20.70;13.90;;;;;;4997308;28;20451;-65
2022/09/06 06:28:53;;;;;;;44.37;12.50;;;21.20;1.00;;;;;;4996929;28;21178;-65
2022/09/06 06:31:21;;;;;;;18.07;9.70;;;21.30;1.00;;;;;;4997084;28;20453;-64
2022/09/06 06:33:47;;;;;;;29.27;10.67;;;21.30;99.90;;;;;;4997393;28;20228;-63
2022/09/06 06:36:13;;;;;;;43.43;12.33;;;21.40;99.90;;;;;;5002485;28;20450;-65
2022/09/06 06:38:41;;;;;;;39.53;11.53;;;21.50;99.90;;;;;;5000490;28;20415;-63
2022/09/06 06:41:09;;;;;;;58.60;13.57;;;21.40;99.90;;;;;;4996983;28;20769;-65
2022/09/06 06:43:37;;;;;;;38.43;10.87;;;21.30;99.90;;;;;;4997357;28;20442;-63
2022/09/06 06:46:07;;;;;;;33.23;13.47;;;21.40;99.90;;;;;;4997398;28;20452;-65
2022/09/06 06:48:34;;;;;;;30.37;12.93;;;21.50;99.90;;;;;;4996885;28;20418;-64
2022/09/06 06:51:01;;;;;;;26.63;11.60;;;21.60;99.90;;;;;;4997368;28;20451;-64
2022/09/06 06:53:27;;;;;;;18.53;10.70;;;21.80;99.90;;;;;;4997128;28;20591;-64
2022/09/06 06:55:53;;;;;;;31.43;11.43;;;21.80;40.70;;;;;;4997190;28;20442;-66
2022/09/06 06:58:19;;;;;;;50.10;14.50;;;21.80;26.60;;;;;;4996992;28;20409;-63
2022/09/06 07:00:45;;;;;;;48.13;13.70;;;22.00;12.70;;;;;;4997052;28;20905;-62
2022/09/06 07:03:12;;;;;;;59.03;15.40;;;22.00;1.00;;;;;;4997002;28;20436;-64
2022/09/06 07:05:39;;;;;;;92.33;17.00;;;22.00;1.00;;;;;;4994888;28;20518;-63
2022/09/06 07:08:06;;;;;;;40.03;12.07;;;22.10;1.00;;;;;;4993742;28;20409;-64
2022/09/06 07:10:33;;;;;;;49.53;13.80;;;22.20;1.00;;;;;;4993827;28;20530;-64
2022/09/06 07:12:59;;;;;;;52.03;13.80;;;22.30;1.00;;;;;;4993994;28;20421;-63
2022/09/06 07:15:24;;;;;;;48.40;14.50;;;22.50;1.00;;;;;;4993814;28;20519;-64
2022/09/06 07:17:51;;;;;;;35.67;12.40;;;23.00;1.00;;;;;;4993631;28;20176;-63
2022/09/06 07:20:19;;;;;;;55.63;12.97;;;23.50;1.00;;;;;;4993723;28;20173;-61
2022/09/06 07:22:45;;;;;;;29.90;10.70;;;23.80;1.00;;;;;;4993816;28;20443;-60
2022/09/06 07:25:12;;;;;;;26.10;10.57;;;23.90;1.00;;;;;;4993653;28;20419;-63
2022/09/06 07:27:38;;;;;;;32.10;11.80;;;23.90;1.00;;;;;;4993529;28;20176;-60
2022/09/06 07:30:05;;;;;;;34.40;11.50;;;24.20;1.00;;;;;;5008463;28;20455;-64
2022/09/06 07:32:33;;;;;;;67.77;12.57;;;24.80;1.00;;;;;;4993814;28;20412;-63
2022/09/06 07:34:59;;;;;;;21.63;9.60;;;25.10;1.00;;;;;;4993470;28;20439;-61
2022/09/06 07:37:24;;;;;;;46.13;10.50;;;25.00;1.00;;;;;;4993262;28;20772;-62
2022/09/06 07:39:50;;;;;;;41.27;11.87;;;25.10;1.00;;;;;;4993369;28;20281;-64
2022/09/06 07:42:16;;;;;;;18.07;8.60;;;25.20;99.90;;;;;;4993229;28;20183;-59
2022/09/06 07:44:41;;;;;;;19.87;8.70;;;25.40;99.90;;;;;;4993312;28;20188;-60
2022/09/06 07:47:09;;;;;;;28.03;9.33;;;25.60;99.90;;;;;;4993187;28;20176;-62
2022/09/06 07:49:34;;;;;;;15.70;8.00;;;25.50;99.90;;;;;;4993105;28;20585;-61
2022/09/06 07:52:00;;;;;;;88.53;14.10;;;25.60;99.90;;;;;;4993575;28;20416;-63
2022/09/06 07:54:26;;;;;;;61.80;10.57;;;25.50;99.90;;;;;;4993035;28;20187;-63
2022/09/06 07:56:52;;;;;;;40.10;10.27;;;25.40;99.90;;;;;;4993202;28;20657;-63
2022/09/06 07:59:17;;;;;;;15.50;6.70;;;25.30;99.90;;;;;;4992916;28;20255;-63
2022/09/06 08:01:43;;;;;;;25.53;7.27;;;24.80;99.90;;;;;;4992986;28;20176;-64
2022/09/06 08:04:14;;;;;;;19.23;5.80;;;24.70;99.90;;;;;;4992813;28;20197;-63
2022/09/06 08:06:46;;;;;;;32.20;8.27;;;24.50;99.90;;;;;;4992973;28;20527;-62
2022/09/06 08:09:12;;;;;;;16.97;5.80;;;24.60;99.90;;;;;;4992760;28;20458;-62
2022/09/06 08:11:39;;;;;;;12.27;5.90;;;24.70;99.90;;;;;;4992748;28;20551;-61
2022/09/06 08:14:07;;;;;;;10.70;6.33;;;24.90;99.90;;;;;;4991510;28;20498;-63
2022/09/06 08:16:34;;;;;;;13.63;6.70;;;24.80;99.90;;;;;;4992710;28;20404;-62
2022/09/06 08:19:03;;;;;;;15.27;6.33;;;24.80;99.90;;;;;;4992186;28;20415;-63
2022/09/06 08:21:31;;;;;;;10.93;5.23;;;25.00;99.90;;;;;;4992590;28;20427;-62
2022/09/06 08:24:02;;;;;;;13.43;5.67;;;25.40;99.90;;;;;;4992315;28;20428;-62
2022/09/06 08:26:30;;;;;;;12.43;6.10;;;25.40;99.90;;;;;;4992462;28;20759;-64
2022/09/06 08:29:01;;;;;;;28.53;6.60;;;25.40;99.90;;;;;;4992137;28;20415;-64
2022/09/06 08:31:31;;;;;;;12.37;5.67;;;25.50;99.90;;;;;;4992386;28;20458;-63
2022/09/06 08:33:58;;;;;;;24.93;6.70;;;25.70;99.90;;;;;;5016660;23;20448;-65
2022/09/06 08:36:30;;;;;;;48.73;9.00;;;25.50;99.90;;;;;;5031201;28;20411;-66
2022/09/06 08:39:00;;;;;;;21.30;6.20;;;25.30;99.90;;;;;;5032197;28;20452;-66
2022/09/06 08:41:39;;;;;;;13.90;6.23;;;25.40;99.90;;;;;;5032461;28;20405;-66
2022/09/06 08:44:11;;;;;;;21.40;6.93;;;25.80;99.90;;;;;;5032389;28;20432;-67
2022/09/06 08:46:40;;;;;;;12.60;5.83;;;26.10;99.90;;;;;;5033141;28;20462;-67
2022/09/06 08:49:08;;;;;;;23.63;5.97;;;26.20;99.90;;;;;;5032518;28;20477;-67
2022/09/06 08:52:01;;;;;;;9.23;5.37;;;26.20;99.90;;;;;;5031981;28;20469;-67
2022/09/06 08:54:42;;;;;;;29.80;7.50;;;26.20;99.90;;;;;;5031905;28;20433;-67
2022/09/06 08:57:27;;;;;;;11.23;5.70;;;26.30;99.90;;;;;;5032443;28;20408;-67
2022/09/06 08:59:58;;;;;;;18.93;6.93;;;26.20;99.90;;;;;;5032029;28;20390;-67
2022/09/06 09:02:24;;;;;;;20.10;7.70;;;26.00;99.90;;;;;;5032407;28;20406;-67
2022/09/06 09:04:52;;;;;;;38.63;8.57;;;25.90;99.90;;;;;;5031842;28;20445;-67
2022/09/06 09:07:20;;;;;;;15.00;5.70;;;25.90;99.90;;;;;;5032175;28;20653;-67
2022/09/06 09:09:46;;;;;;;14.47;7.00;;;25.80;99.90;;;;;;5031935;28;20966;-67
2022/09/06 09:12:16;;;;;;;12.27;5.93;;;25.70;99.90;;;;;;5032085;28;20434;-67
2022/09/06 09:14:47;;;;;;;10.30;4.97;;;25.80;99.90;;;;;;5031595;28;20652;-67
2022/09/06 09:17:21;;;;;;;16.90;6.20;;;26.00;99.90;;;;;;5031523;28;20450;-67
2022/09/06 09:19:47;;;;;;;8.10;5.00;;;26.40;99.90;;;;;;5031604;28;20402;-67
2022/09/06 09:22:18;;;;;;;7.20;4.47;;;26.50;99.90;;;;;;5031300;28;20412;-67
2022/09/06 09:24:46;;;;;;;11.70;5.00;;;26.50;99.90;;;;;;5031424;28;20422;-67
2022/09/06 09:27:15;;;;;;;10.63;5.43;;;26.30;99.90;;;;;;5031574;28;20398;-67
2022/09/06 09:30:03;;;;;;;17.27;5.27;;;25.90;99.90;;;;;;5030917;28;20926;-66
2022/09/06 09:32:32;;;;;;;12.57;5.00;;;25.80;99.90;;;;;;5031282;28;20426;-66
2022/09/06 09:35:19;;;;;;;21.77;6.03;;;25.80;99.90;;;;;;5031019;28;20445;-65
2022/09/06 09:37:46;;;;;;;6.67;4.00;;;25.70;99.90;;;;;;5031933;28;20406;-65
2022/09/06 09:40:22;;;;;;;21.63;6.23;;;25.80;99.90;;;;;;5030982;28;20747;-66
2022/09/06 09:42:49;;;;;;;32.80;6.23;;;25.80;99.90;;;;;;5031002;28;20410;-66
2022/09/06 09:45:27;;;;;;;14.60;4.57;;;25.80;99.90;;;;;;5030975;28;20429;-64
2022/09/06 09:47:53;;;;;;;28.53;7.00;;;25.90;99.90;;;;;;5030866;28;20406;-65
2022/09/06 09:50:29;;;;;;;32.10;7.77;;;26.10;99.90;;;;;;5031208;28;20954;-66
2022/09/06 09:53:05;;;;;;;94.50;13.20;;;26.20;99.90;;;;;;5031003;28;20460;-66
2022/09/06 09:55:31;;;;;;;30.97;6.97;;;26.60;99.90;;;;;;5031022;28;20418;-66
2022/09/06 09:57:58;;;;;;;7.27;4.87;;;26.90;99.90;;;;;;5030642;28;20417;-66
2022/09/06 10:00:38;;;;;;;19.80;7.00;;;27.10;99.90;;;;;;5030684;28;20171;-66
2022/09/06 10:03:15;;;;;;;30.90;7.83;;;27.20;99.90;;;;;;5030782;28;20444;-67
2022/09/06 10:05:53;;;;;;;16.87;6.30;;;27.30;99.90;;;;;;5031115;28;20479;-66
2022/09/06 10:08:22;;;;;;;24.97;6.50;;;27.30;99.90;;;;;;5030363;28;20405;-67
2022/09/06 10:10:48;;;;;;;12.27;5.00;;;27.30;99.90;;;;;;5030896;28;20457;-64
2022/09/06 10:13:25;;;;;;;20.73;5.80;;;27.40;99.90;;;;;;5030821;28;20437;-65
2022/09/06 10:15:52;;;;;;;17.07;5.47;;;27.20;99.90;;;;;;5030937;28;20418;-67
2022/09/06 10:18:21;;;;;;;26.87;6.60;;;27.30;99.90;;;;;;5030489;28;20420;-67
2022/09/06 10:20:55;;;;;;;28.30;6.13;;;27.30;99.90;;;;;;5030639;28;20401;-67
2022/09/06 10:23:39;;;;;;;14.47;6.03;;;27.20;99.90;;;;;;5030574;28;20556;-67
2022/09/06 10:26:22;;;;;;;26.10;6.67;;;27.10;99.90;;;;;;5030510;28;20471;-67
2022/09/06 10:28:52;;;;;;;9.20;5.17;;;27.10;99.90;;;;;;5030300;28;20420;-67
2022/09/06 10:31:31;;;;;;;14.30;5.97;;;27.40;99.90;;;;;;5030347;28;20457;-67
2022/09/06 10:34:23;;;;;;;5.23;4.40;;;27.50;99.90;;;;;;5030222;28;20533;-67
2022/09/06 10:37:07;;;;;;;48.37;7.87;;;27.70;99.90;;;;;;5021839;28;20422;-67
2022/09/06 10:39:56;;;;;;;20.33;6.47;;;27.70;99.90;;;;;;5030100;28;20431;-67
2022/09/06 10:42:22;;;;;;;12.90;5.03;;;27.60;99.90;;;;;;5033495;28;20758;-67
2022/09/06 10:45:01;;;;;;;77.17;10.97;;;27.50;99.90;;;;;;5033944;28;20429;-66
2022/09/06 10:47:35;;;;;;;23.27;5.47;;;27.50;99.90;;;;;;5033878;28;20206;-67
2022/09/06 10:50:04;;;;;;;10.50;5.27;;;27.50;99.90;;;;;;5033826;28;20449;-67
2022/09/06 10:52:39;;;;;;;16.17;6.73;;;27.40;99.90;;;;;;5033997;28;20410;-67
2022/09/06 10:55:08;;;;;;;12.20;5.33;;;27.30;99.90;;;;;;5034058;28;20414;-67
2022/09/06 10:57:45;;;;;;;7.40;5.43;;;27.20;99.90;;;;;;5033901;28;20406;-67
2022/09/06 11:00:13;;;;;;;14.40;5.33;;;27.10;99.90;;;;;;5033782;28;20874;-67
2022/09/06 11:02:53;;;;;;;15.63;5.70;;;27.10;99.90;;;;;;5033898;28;20561;-67
2022/09/06 11:05:24;;;;;;;28.57;6.40;;;27.00;99.90;;;;;;5034283;28;20425;-67
2022/09/06 11:08:01;;;;;;;21.03;6.40;;;26.90;99.90;;;;;;5036494;28;20417;-67
2022/09/06 11:10:31;;;;;;;11.60;6.07;;;26.90;99.90;;;;;;5036147;28;20464;-67
2022/09/06 11:13:07;;;;;;;8.70;5.33;;;26.80;99.90;;;;;;5034769;28;20409;-67
2022/09/06 11:15:53;;;;;;;11.47;5.20;;;26.80;99.90;;;;;;5033251;28;20456;-67
2022/09/06 11:18:29;;;;;;;19.90;5.60;;;26.80;99.90;;;;;;5032977;28;20488;-67
2022/09/06 11:21:10;;;;;;;27.90;7.13;;;26.80;99.90;;;;;;5033542;28;20431;-67
2022/09/06 11:23:48;;;;;;;28.03;6.07;;;26.70;99.90;;;;;;5033378;28;20424;-67
2022/09/06 11:26:35;;;;;;;8.37;5.33;;;26.80;99.90;;;;;;5033553;28;20832;-67
2022/09/06 11:29:19;;;;;;;26.47;6.83;;;26.70;99.90;;;;;;5033041;28;20767;-67
2022/09/06 11:31:53;;;;;;;18.00;5.57;;;26.70;99.90;;;;;;5033777;28;20554;-67
2022/09/06 11:34:27;;;;;;;39.87;8.90;;;26.60;99.90;;;;;;5033149;28;20480;-67
2022/09/06 11:36:58;;;;;;;45.03;8.30;;;26.70;99.90;;;;;;5033296;28;20419;-66
2022/09/06 11:39:32;;;;;;;36.30;8.53;;;26.70;99.90;;;;;;5033057;28;20403;-66
2022/09/06 11:41:59;;;;;;;9.03;4.87;;;26.70;99.90;;;;;;5033124;28;20411;-65
2022/09/06 11:44:49;;;;;;;45.67;8.10;;;26.60;99.90;;;;;;5032673;28;20429;-65
2022/09/06 11:47:36;;;;;;;65.07;10.83;;;26.60;99.90;;;;;;5032638;28;20410;-65
2022/09/06 11:50:20;;;;;;;8.73;5.37;;;26.80;99.90;;;;;;5032533;28;20484;-65
2022/09/06 11:52:58;;;;;;;12.13;5.80;;;26.80;99.90;;;;;;5031936;28;20461;-66
2022/09/06 11:55:29;;;;;;;34.40;6.77;;;26.80;99.90;;;;;;5032587;28;20428;-66
2022/09/06 11:57:57;;;;;;;19.40;7.17;;;26.90;99.90;;;;;;5032907;28;20425;-65
2022/09/06 12:00:23;;;;;;;10.37;4.93;;;27.10;99.90;;;;;;5032353;28;20890;-66
2022/09/06 12:02:50;;;;;;;19.90;7.43;;;27.10;99.90;;;;;;5032796;28;20929;-65
2022/09/06 12:05:24;;;;;;;17.67;6.20;;;27.00;99.90;;;;;;5032328;28;20425;-66
2022/09/06 12:08:11;;;;;;;20.67;5.40;;;26.90;99.90;;;;;;5032509;28;20937;-66
2022/09/06 12:10:44;;;;;;;40.37;7.70;;;26.80;99.90;;;;;;5035019;28;20510;-66
2022/09/06 12:13:40;;;;;;;15.90;6.17;;;26.70;99.90;;;;;;5035462;28;20782;-66
2022/09/06 12:16:08;;;;;;;10.40;4.70;;;26.80;99.90;;;;;;5026198;28;20438;-67
2022/09/06 12:18:46;;;;;;;13.93;4.70;;;26.60;99.90;;;;;;5034537;28;20398;-66
2022/09/06 12:21:41;;;;;;;8.53;5.10;;;26.50;99.90;;;;;;5033913;28;20405;-66
2022/09/06 12:24:33;;;;;;;12.63;6.13;;;26.40;99.90;;;;;;5032820;28;20464;-66
2022/09/06 12:27:22;;;;;;;12.20;4.90;;;26.40;99.90;;;;;;5032193;28;20509;-65
2022/09/06 12:29:58;;;;;;;34.90;6.67;;;26.40;99.90;;;;;;5031888;28;20556;-66
2022/09/06 12:32:48;;;;;;;27.37;6.60;;;26.30;99.90;;;;;;5032044;28;20409;-65
2022/09/06 12:35:22;;;;;;;34.20;7.67;;;26.30;99.90;;;;;;5031819;28;20571;-65
2022/09/06 12:37:55;;;;;;;22.60;6.67;;;26.30;99.90;;;;;;5031708;28;21285;-66
2022/09/06 12:40:23;;;;;;;37.33;7.40;;;26.30;99.90;;;;;;5031748;28;20409;-66
2022/09/06 12:42:50;;;;;;;40.37;7.20;;;26.30;99.90;;;;;;5031842;28;20422;-66
2022/09/06 12:45:20;;;;;;;26.07;7.77;;;26.30;99.90;;;;;;5031602;28;20425;-66
2022/09/06 12:47:47;;;;;;;47.17;8.53;;;26.40;99.90;;;;;;5031633;28;20402;-66
2022/09/06 12:50:23;;;;;;;29.37;7.47;;;26.40;99.90;;;;;;5031581;28;20485;-66
2022/09/06 12:52:58;;;;;;;43.87;8.30;;;26.40;99.90;;;;;;5031605;28;20413;-67
2022/09/06 12:55:34;;;;;;;16.43;5.43;;;26.50;99.90;;;;;;5031769;28;20795;-67
2022/09/06 12:58:03;;;;;;;15.70;6.60;;;26.50;99.90;;;;;;5031633;28;20401;-67